Terminal Aerodrome Forecast
Issued by NWS Sioux Falls, SD

Home | Current Version | Previous Version | Graphics & Text | Print | Product List | Glossary On
Versions: 1 2 3 4 5 6 7 8 9 10 11 12 13 14 15 16 17 18 19 20 21 22 23 24 25 26 27 28 29 30 31 32
000
FTUS43 KFSD 152320
TAFSUX
TAF
KSUX 152320Z 1600/1624 33024G30KT P6SM -RA OVC008
     FM160100 33028G35KT 4SM -SN BR OVC008
     FM160400 33026G35KT P6SM OVC012
     FM161200 32017G27KT P6SM OVC015
     FM161800 33014KT P6SM SCT015=

USA.gov is the U.S. government's official web portal to all federal, state and local government web resources and services.